Time;durP1;ratioP1;P1;durP2;ratioP2;P2;SDS_P1;SDS_P2;PMS_P1;PMS_P2;Temp;Humidity;BMP_temperature;BMP_pressure;BME280_temperature;BME280_humidity;BME280_pressure;Samples;Min_cycle;Max_cycle;Signal;HPM_P1;HPM_P2
2023/12/14 00:00:50;;;;;;;49.42;34.00;;;;;;;17.17;55.87;101086.69;5025884;28;20053;-38
2023/12/14 00:03:17;;;;;;;52.10;34.35;;;;;;;17.15;56.14;101092.16;5031598;28;20346;-36
2023/12/14 00:05:43;;;;;;;52.42;33.25;;;;;;;17.14;55.43;101101.19;5028740;28;20081;-36
2023/12/14 00:08:10;;;;;;;47.40;32.60;;;;;;;17.14;55.34;101105.69;5032047;28;20143;-36
2023/12/14 00:10:37;;;;;;;50.17;33.67;;;;;;;17.12;56.16;101113.84;5023299;28;20050;-36
2023/12/14 00:13:04;;;;;;;46.78;31.13;;;;;;;17.11;55.34;101109.50;5027561;28;20445;-36
2023/12/14 00:15:31;;;;;;;46.83;31.40;;;;;;;17.10;55.87;101129.25;5029808;28;20382;-36
2023/12/14 00:17:57;;;;;;;46.05;29.88;;;;;;;17.09;55.28;101124.03;5030481;28;20056;-36
2023/12/14 00:20:24;;;;;;;48.38;30.83;;;;;;;17.08;55.64;101127.69;5028013;28;20067;-36
2023/12/14 00:22:51;;;;;;;43.55;28.65;;;;;;;17.06;55.89;101127.81;5031539;28;20041;-34
2023/12/14 00:25:17;;;;;;;44.88;30.80;;;;;;;17.06;55.82;101132.34;5030977;28;20341;-36
2023/12/14 00:27:44;;;;;;;43.45;29.02;;;;;;;17.04;55.94;101135.13;5029956;28;20115;-37
2023/12/14 00:30:11;;;;;;;44.25;29.40;;;;;;;17.05;56.25;101149.41;5027116;28;20388;-37
2023/12/14 00:32:38;;;;;;;39.65;26.83;;;;;;;17.02;55.58;101135.28;5025067;28;20140;-37
2023/12/14 00:35:05;;;;;;;41.50;28.42;;;;;;;17.02;56.29;101154.03;5029093;28;20049;-36
2023/12/14 00:37:31;;;;;;;41.30;27.33;;;;;;;17.01;55.37;101162.22;5028272;28;20121;-37
2023/12/14 00:39:58;;;;;;;38.88;27.23;;;;;;;17.01;55.46;101167.56;5031945;28;20337;-36
2023/12/14 00:42:24;;;;;;;42.97;28.90;;;;;;;16.99;55.95;101170.38;5032395;28;20114;-37
2023/12/14 00:44:51;;;;;;;40.85;27.27;;;;;;;16.99;55.83;101178.41;5025358;28;20120;-36
2023/12/14 00:47:18;;;;;;;39.05;26.92;;;;;;;16.99;55.63;101177.56;5028255;28;20045;-37
2023/12/14 00:49:44;;;;;;;39.13;26.52;;;;;;;16.98;55.44;101189.28;5030560;28;20168;-37
2023/12/14 00:52:11;;;;;;;35.75;25.40;;;;;;;16.97;56.24;101191.09;5031760;28;20119;-38
2023/12/14 00:54:37;;;;;;;36.90;25.63;;;;;;;16.97;55.99;101198.28;5033606;28;20131;-36
2023/12/14 00:57:04;;;;;;;38.05;25.67;;;;;;;16.95;55.88;101208.28;5031171;28;20085;-37
2023/12/14 00:59:31;;;;;;;37.10;25.00;;;;;;;16.95;55.73;101202.94;5029752;28;20088;-36
2023/12/14 01:01:58;;;;;;;36.80;24.63;;;;;;;16.94;55.62;101199.41;5029906;28;20483;-37
2023/12/14 01:04:24;;;;;;;34.90;23.90;;;;;;;16.94;55.55;101210.13;5032743;28;20059;-37
2023/12/14 01:06:51;;;;;;;34.17;22.38;;;;;;;16.94;55.82;101222.66;5036008;28;20517;-36
2023/12/14 01:09:18;;;;;;;35.28;23.85;;;;;;;16.93;56.05;101215.63;5038310;28;20053;-36
2023/12/14 01:11:44;;;;;;;31.67;22.52;;;;;;;16.93;55.62;101226.34;5043904;28;20045;-39
2023/12/14 01:14:11;;;;;;;37.55;23.85;;;;;;;16.91;55.75;101226.44;5038367;28;20045;-36
2023/12/14 01:16:38;;;;;;;32.90;22.88;;;;;;;16.91;56.15;101229.13;5025404;28;20088;-36
2023/12/14 01:19:08;;;;;;;33.70;22.75;;;;;;;16.90;55.55;101230.13;5036504;28;20049;-35
2023/12/14 01:21:35;;;;;;;33.85;23.23;;;;;;;16.91;55.49;101242.50;5037408;28;20068;-36
2023/12/14 01:24:01;;;;;;;31.17;21.50;;;;;;;16.89;55.88;101249.00;5034737;28;20048;-36
2023/12/14 01:26:28;;;;;;;33.13;22.88;;;;;;;16.89;55.52;101257.88;5036143;28;20108;-34
2023/12/14 01:28:54;;;;;;;30.95;21.63;;;;;;;16.88;55.76;101261.53;5033266;28;20099;-36
2023/12/14 01:31:24;;;;;;;32.15;21.67;;;;;;;16.89;55.46;101265.06;5038413;28;20085;-35
2023/12/14 01:33:51;;;;;;;30.92;20.88;;;;;;;16.87;55.65;101256.31;5040428;28;20054;-35
2023/12/14 01:36:21;;;;;;;31.98;21.45;;;;;;;16.87;55.49;101264.34;5038210;28;20056;-36
2023/12/14 01:38:48;;;;;;;29.15;20.20;;;;;;;16.86;55.90;101270.69;5037220;28;20084;-34
2023/12/14 01:41:15;;;;;;;27.75;19.95;;;;;;;16.84;56.02;101273.47;5042687;28;20073;-34
2023/12/14 01:43:42;;;;;;;29.88;20.10;;;;;;;16.85;56.14;101279.72;5037319;28;20602;-37
2023/12/14 01:46:09;;;;;;;28.33;19.58;;;;;;;16.83;55.52;101282.50;5034336;28;20493;-36
2023/12/14 01:48:35;;;;;;;28.35;19.85;;;;;;;16.83;55.47;101289.69;5039231;28;20129;-34
2023/12/14 01:51:02;;;;;;;26.52;19.23;;;;;;;16.82;55.31;101301.38;5037799;28;20056;-35
2023/12/14 01:53:29;;;;;;;28.00;18.90;;;;;;;16.83;56.23;101303.06;5037145;28;20135;-35
2023/12/14 01:55:57;;;;;;;26.38;18.50;;;;;;;16.81;55.76;101305.06;5041841;28;20137;-35
2023/12/14 01:58:26;;;;;;;27.67;19.33;;;;;;;16.80;55.83;101304.19;5038724;28;20503;-36
2023/12/14 02:01:18;;;;;;;25.63;18.15;;;;;;;16.77;55.90;101316.03;5037570;28;20123;-34
2023/12/14 02:03:50;;;;;;;26.73;18.85;;;;;;;16.79;55.55;101323.91;5037514;28;20064;-35
2023/12/14 02:06:17;;;;;;;26.55;18.10;;;;;;;16.77;55.58;101324.06;5037761;28;20649;-39
2023/12/14 02:08:44;;;;;;;26.33;17.90;;;;;;;16.78;56.17;101331.09;5040734;28;20080;-37
2023/12/14 02:11:11;;;;;;;26.58;17.80;;;;;;;16.77;56.02;101334.75;5034042;28;20104;-35
2023/12/14 02:13:38;;;;;;;24.13;17.10;;;;;;;16.76;55.92;101341.09;5039084;28;20603;-35
2023/12/14 02:16:05;;;;;;;24.75;17.63;;;;;;;16.75;55.83;101352.78;5034493;28;20130;-34
2023/12/14 02:18:31;;;;;;;24.85;17.42;;;;;;;16.76;55.61;101362.53;5033210;28;20049;-34
2023/12/14 02:20:58;;;;;;;25.83;16.95;;;;;;;16.75;56.31;101359.97;5046849;28;20128;-35
2023/12/14 02:23:25;;;;;;;23.80;16.45;;;;;;;16.74;55.63;101364.47;5038175;28;20057;-35
2023/12/14 02:25:51;;;;;;;24.63;16.75;;;;;;;16.74;56.18;101368.97;5033153;28;20049;-35
2023/12/14 02:28:18;;;;;;;21.83;15.52;;;;;;;16.73;56.09;101367.28;5033492;28;20081;-35
2023/12/14 02:30:45;;;;;;;24.08;16.13;;;;;;;16.72;56.34;101382.47;5026776;28;20053;-35
2023/12/14 02:33:11;;;;;;;22.52;15.77;;;;;;;16.73;55.80;101375.31;5046450;28;20110;-37
2023/12/14 02:35:38;;;;;;;22.85;15.32;;;;;;;16.72;55.54;101378.91;5033145;28;20140;-38
2023/12/14 02:38:04;;;;;;;23.55;15.68;;;;;;;16.71;55.92;101380.75;5032075;28;20406;-35
2023/12/14 02:40:31;;;;;;;20.10;13.90;;;;;;;16.72;56.43;101392.31;5032593;28;20046;-34
2023/12/14 02:42:58;;;;;;;20.15;13.88;;;;;;;16.70;56.27;101387.09;5033731;28;20349;-35
2023/12/14 02:45:24;;;;;;;21.50;15.23;;;;;;;16.70;55.89;101395.13;5030805;28;20052;-35
2023/12/14 02:47:53;;;;;;;22.52;15.30;;;;;;;16.69;56.12;101401.47;5036057;28;20064;-36
2023/12/14 02:50:20;;;;;;;20.90;14.85;;;;;;;16.69;56.16;101400.63;5030039;28;20497;-34
2023/12/14 02:52:47;;;;;;;18.48;13.45;;;;;;;16.69;55.62;101411.31;5042528;28;20050;-35
2023/12/14 02:55:14;;;;;;;20.58;14.30;;;;;;;16.69;56.48;101414.00;5030054;28;20061;-34
2023/12/14 02:57:40;;;;;;;21.17;14.57;;;;;;;16.66;55.69;101412.44;5026256;28;20330;-34
2023/12/14 03:00:08;;;;;;;20.50;13.77;;;;;;;16.66;55.69;101416.94;5024129;28;20053;-34
2023/12/14 03:02:34;;;;;;;20.33;13.88;;;;;;;16.65;56.11;101413.41;5025458;28;20088;-34
2023/12/14 03:05:02;;;;;;;17.73;13.27;;;;;;;16.65;55.46;101409.91;5025146;28;20049;-36
2023/12/14 03:07:28;;;;;;;18.65;12.60;;;;;;;16.64;55.71;101408.16;5027769;28;20045;-35
2023/12/14 03:09:55;;;;;;;19.23;13.05;;;;;;;16.63;55.73;101410.00;5027249;28;20430;-36
2023/12/14 03:12:21;;;;;;;17.90;12.75;;;;;;;16.62;55.46;101419.03;5025082;28;20140;-34
2023/12/14 03:14:48;;;;;;;18.55;12.20;;;;;;;16.63;55.53;101417.19;5024006;28;20061;-34
2023/12/14 03:17:16;;;;;;;17.63;12.32;;;;;;;16.62;56.11;101419.03;5037857;28;20069;-38
2023/12/14 03:19:43;;;;;;;16.40;12.05;;;;;;;16.62;56.08;101415.50;5034217;28;20884;-35
2023/12/14 03:22:09;;;;;;;17.70;12.43;;;;;;;16.61;55.73;101417.31;5029714;28;20077;-35
2023/12/14 03:24:36;;;;;;;19.77;12.35;;;;;;;16.61;55.86;101424.50;5030047;28;20050;-34
2023/12/14 03:27:03;;;;;;;18.35;12.25;;;;;;;16.59;55.64;101419.28;5021956;28;20042;-35
2023/12/14 03:29:30;;;;;;;16.42;11.40;;;;;;;16.58;56.14;101420.25;5028710;28;20050;-35
2023/12/14 03:31:57;;;;;;;15.93;10.57;;;;;;;16.59;55.58;101423.78;5025275;28;20128;-35
2023/12/14 03:34:24;;;;;;;17.17;11.35;;;;;;;16.57;55.81;101423.91;5026914;28;20160;-34
2023/12/14 03:36:51;;;;;;;16.45;11.18;;;;;;;16.57;55.17;101421.25;5028540;28;20054;-34
2023/12/14 03:39:18;;;;;;;16.95;11.50;;;;;;;16.56;55.70;101424.88;5026869;28;20061;-37
2023/12/14 03:41:45;;;;;;;16.52;11.80;;;;;;;16.56;55.90;101424.88;5027402;28;20049;-36
2023/12/14 03:44:11;;;;;;;15.90;11.57;;;;;;;16.54;55.97;101432.19;5029656;28;20134;-36
2023/12/14 03:46:38;;;;;;;15.15;10.43;;;;;;;16.58;55.84;101433.63;5022971;28;20057;-34
2023/12/14 03:49:05;;;;;;;16.67;11.30;;;;;;;16.67;55.01;101440.88;5031433;28;20417;-35
2023/12/14 03:51:32;;;;;;;14.70;10.43;;;;;;;16.77;55.48;101443.69;5027737;28;20505;-38
2023/12/14 03:53:58;;;;;;;14.88;10.55;;;;;;;16.85;54.84;101443.03;5033866;28;20057;-38
2023/12/14 03:56:25;;;;;;;14.50;10.57;;;;;;;16.94;54.84;101442.22;5032053;28;20124;-36
2023/12/14 03:58:52;;;;;;;13.48;9.82;;;;;;;17.02;54.54;101448.63;5035066;28;20045;-38
2023/12/14 04:01:20;;;;;;;13.55;9.30;;;;;;;17.10;54.84;101453.31;5031005;28;20099;-35
2023/12/14 04:03:47;;;;;;;14.80;10.35;;;;;;;17.16;54.81;101455.44;5031013;28;20053;-36
2023/12/14 04:06:15;;;;;;;14.70;10.00;;;;;;;17.21;54.21;101453.25;5033508;28;20048;-36
2023/12/14 04:08:42;;;;;;;13.75;9.80;;;;;;;17.25;54.46;101459.19;5026134;28;20056;-35
2023/12/14 04:11:08;;;;;;;14.57;9.80;;;;;;;17.26;54.21;101475.09;5027460;28;20042;-36
2023/12/14 04:13:36;;;;;;;13.13;9.68;;;;;;;17.28;54.14;101473.13;5025566;28;20251;-36
2023/12/14 04:16:03;;;;;;;11.85;8.93;;;;;;;17.28;54.28;101478.47;5023491;28;20053;-35
2023/12/14 04:18:30;;;;;;;13.38;9.07;;;;;;;17.30;54.52;101489.09;5029092;28;20412;-36
2023/12/14 04:20:57;;;;;;;11.30;8.23;;;;;;;17.29;54.57;101487.41;5027656;28;20064;-35
2023/12/14 04:23:24;;;;;;;13.30;9.50;;;;;;;17.28;53.89;101491.88;5027914;28;20437;-36
2023/12/14 04:25:50;;;;;;;13.48;9.48;;;;;;;17.27;54.14;101489.34;5032898;28;20400;-40
2023/12/14 04:28:17;;;;;;;12.75;8.32;;;;;;;17.25;53.74;101494.84;5021877;28;20102;-38
2023/12/14 04:30:44;;;;;;;11.45;8.13;;;;;;;17.23;54.18;101498.63;5025514;28;20842;-40
2023/12/14 04:33:11;;;;;;;11.70;8.75;;;;;;;17.18;53.79;101509.75;5026998;28;20130;-39
2023/12/14 04:35:38;;;;;;;12.70;8.48;;;;;;;17.15;53.73;101510.00;5027539;28;20107;-36
2023/12/14 04:38:05;;;;;;;9.80;7.13;;;;;;;17.10;54.16;101517.59;5030596;28;20091;-37
2023/12/14 04:40:32;;;;;;;11.57;8.20;;;;;;;17.05;53.99;101513.63;5029109;28;20115;-36
2023/12/14 04:42:59;;;;;;;10.02;7.47;;;;;;;16.99;54.57;101528.38;5027812;28;20060;-38
2023/12/14 04:45:26;;;;;;;11.77;7.97;;;;;;;16.92;55.00;101533.38;5025247;28;20107;-39
2023/12/14 04:47:52;;;;;;;10.40;7.43;;;;;;;16.87;54.37;101532.09;5027296;28;20049;-40
2023/12/14 04:50:20;;;;;;;12.23;8.18;;;;;;;16.80;54.55;101547.78;5030989;28;20061;-38
2023/12/14 04:52:46;;;;;;;12.05;7.85;;;;;;;16.73;55.07;101552.00;5032548;28;20133;-39
2023/12/14 04:55:13;;;;;;;11.38;7.93;;;;;;;16.68;55.43;101565.72;5032681;28;20361;-38
2023/12/14 04:57:40;;;;;;;10.70;7.68;;;;;;;16.63;55.58;101575.94;5028663;28;20429;-36
2023/12/14 05:00:07;;;;;;;9.40;7.05;;;;;;;16.59;55.44;101579.84;5033105;28;20044;-36
2023/12/14 05:02:34;;;;;;;10.00;7.22;;;;;;;16.55;55.86;101589.09;5032655;28;20049;-38
2023/12/14 05:05:02;;;;;;;9.20;6.60;;;;;;;16.51;55.29;101587.66;5033657;28;20356;-37
2023/12/14 05:07:30;;;;;;;10.32;7.32;;;;;;;16.48;56.44;101588.78;5027665;28;20045;-37
2023/12/14 05:09:56;;;;;;;10.30;7.00;;;;;;;16.46;55.83;101593.38;5031123;28;20573;-39
2023/12/14 05:12:25;;;;;;;9.10;6.47;;;;;;;16.47;56.23;101597.75;5028560;28;20112;-38
2023/12/14 05:14:52;;;;;;;9.50;6.78;;;;;;;16.55;55.58;101605.16;5024099;28;20065;-37
2023/12/14 05:17:19;;;;;;;9.77;7.00;;;;;;;16.68;55.83;101611.22;5026494;28;20421;-35
2023/12/14 05:19:46;;;;;;;9.88;6.82;;;;;;;16.84;55.19;101608.13;5028890;28;20054;-35
2023/12/14 05:22:13;;;;;;;9.45;7.13;;;;;;;17.01;54.71;101620.16;5028215;28;20057;-34
2023/12/14 05:24:39;;;;;;;10.38;7.07;;;;;;;17.15;55.04;101624.34;5025096;28;20049;-35
2023/12/14 05:27:06;;;;;;;11.07;7.68;;;;;;;17.28;54.58;101635.72;5023815;28;20501;-34
2023/12/14 05:29:33;;;;;;;11.32;8.13;;;;;;;17.41;54.19;101628.38;5024351;28;20151;-34
2023/12/14 05:32:00;;;;;;;11.23;8.20;;;;;;;17.50;54.02;101630.25;5021776;28;20127;-35
2023/12/14 05:34:26;;;;;;;10.38;7.72;;;;;;;17.59;53.65;101633.97;5021161;28;20508;-37
2023/12/14 05:36:53;;;;;;;9.85;6.85;;;;;;;17.65;53.60;101637.97;5029048;28;20454;-35
2023/12/14 05:39:20;;;;;;;10.70;7.68;;;;;;;17.67;53.58;101642.19;5028034;28;20103;-35
2023/12/14 05:41:46;;;;;;;12.68;8.10;;;;;;;17.67;53.28;101647.56;5025521;28;20053;-36
2023/12/14 05:44:13;;;;;;;10.95;7.75;;;;;;;17.66;53.23;101645.03;5031301;28;20099;-35
2023/12/14 05:46:40;;;;;;;11.27;8.05;;;;;;;17.63;53.44;101661.38;5027466;28;20129;-36
2023/12/14 05:49:06;;;;;;;12.15;8.13;;;;;;;17.60;53.46;101662.47;5025236;28;20049;-34
2023/12/14 05:51:33;;;;;;;11.60;8.20;;;;;;;17.59;53.33;101662.59;5027601;28;20052;-37
2023/12/14 05:54:00;;;;;;;12.23;8.75;;;;;;;17.57;53.43;101662.75;5031821;28;20052;-36
2023/12/14 05:56:26;;;;;;;10.95;7.90;;;;;;;17.55;53.12;101664.69;5031947;28;20080;-36
2023/12/14 05:58:53;;;;;;;12.55;8.52;;;;;;;17.55;53.35;101671.91;5019832;28;20072;-35
2023/12/14 06:01:20;;;;;;;11.70;8.57;;;;;;;17.51;53.17;101669.47;5031413;28;20046;-35
2023/12/14 06:03:47;;;;;;;10.98;8.30;;;;;;;17.51;53.33;101665.94;5029236;28;20045;-35
2023/12/14 06:06:14;;;;;;;12.02;8.10;;;;;;;17.48;53.38;101677.75;5027208;28;20050;-36
2023/12/14 06:08:41;;;;;;;11.60;8.10;;;;;;;17.47;53.27;101677.91;5029315;28;20041;-35
2023/12/14 06:11:08;;;;;;;12.25;8.38;;;;;;;17.45;53.54;101678.03;5030302;28;20512;-34
2023/12/14 06:13:35;;;;;;;12.18;8.02;;;;;;;17.44;53.02;101687.03;5027336;28;20108;-36
2023/12/14 06:16:02;;;;;;;11.63;8.32;;;;;;;17.42;53.22;101691.69;5024177;28;20041;-36
2023/12/14 06:18:29;;;;;;;11.30;8.00;;;;;;;17.41;52.95;101689.16;5029069;28;20057;-35
2023/12/14 06:20:56;;;;;;;11.68;7.80;;;;;;;17.38;53.21;101687.56;5034562;28;20132;-34
2023/12/14 06:23:25;;;;;;;11.30;8.02;;;;;;;17.37;53.31;101704.63;5028865;28;20056;-37
2023/12/14 06:25:52;;;;;;;12.23;8.00;;;;;;;17.34;53.69;101707.56;5029537;28;20107;-38
2023/12/14 06:28:18;;;;;;;11.75;7.75;;;;;;;17.30;53.48;101714.16;5028174;28;20452;-37
2023/12/14 06:30:45;;;;;;;12.90;7.72;;;;;;;17.25;53.68;101724.41;5032297;28;20132;-38
2023/12/14 06:33:12;;;;;;;12.98;8.63;;;;;;;17.19;53.29;101728.44;5031093;28;20447;-37
2023/12/14 06:35:38;;;;;;;11.50;8.15;;;;;;;17.15;53.66;101729.66;5034130;28;20393;-37
2023/12/14 06:38:05;;;;;;;11.93;8.45;;;;;;;17.09;53.36;101740.03;5019863;28;20056;-36
2023/12/14 06:40:31;;;;;;;11.43;8.27;;;;;;;17.05;53.49;101744.81;5027130;28;20128;-36
2023/12/14 06:42:58;;;;;;;11.85;8.15;;;;;;;16.98;53.59;101749.78;5030872;28;20059;-37
2023/12/14 06:45:25;;;;;;;12.25;8.40;;;;;;;16.92;53.91;101762.81;5026031;28;20381;-35
2023/12/14 06:47:51;;;;;;;13.32;8.70;;;;;;;16.85;54.89;101767.84;5026759;28;20392;-37
2023/12/14 06:50:18;;;;;;;12.07;8.40;;;;;;;16.78;nan;101772.81;5024072;28;20090;-36
2023/12/14 06:52:45;;;;;;;11.40;7.93;;;;;;;16.75;54.65;101769.53;5026614;28;20111;-37
2023/12/14 06:55:11;;;;;;;12.60;8.50;;;;;;;16.83;54.22;101785.00;5024613;28;20049;-36
2023/12/14 06:57:39;;;;;;;11.85;8.60;;;;;;;16.94;54.74;101793.03;5022332;28;20041;-37
2023/12/14 07:00:06;;;;;;;12.27;8.30;;;;;;;17.07;53.75;101785.69;5027414;28;20085;-36
2023/12/14 07:02:33;;;;;;;10.52;7.80;;;;;;;17.20;54.30;101786.38;5032332;28;20062;-35
2023/12/14 07:05:00;;;;;;;11.48;8.02;;;;;;;17.35;53.93;101786.97;5024355;28;20137;-37
2023/12/14 07:07:26;;;;;;;10.50;7.80;;;;;;;17.48;53.44;101789.47;5024875;28;20053;-36
2023/12/14 07:09:53;;;;;;;10.40;7.97;;;;;;;17.61;53.19;101797.34;5025522;28;20056;-35
2023/12/14 07:12:20;;;;;;;12.02;8.23;;;;;;;17.73;52.83;101799.88;5028974;28;20052;-35
2023/12/14 07:14:46;;;;;;;9.88;7.38;;;;;;;17.85;52.84;101791.78;5028853;28;20056;-35
2023/12/14 07:17:13;;;;;;;10.90;7.53;;;;;;;17.95;52.42;101801.63;5026011;28;20752;-36
2023/12/14 07:19:40;;;;;;;10.77;7.68;;;;;;;18.05;52.04;101809.75;5028858;28;20128;-37
2023/12/14 07:22:06;;;;;;;10.18;7.63;;;;;;;18.13;52.30;101809.97;5030124;28;20055;-35
2023/12/14 07:24:33;;;;;;;11.25;7.80;;;;;;;18.22;52.31;101808.31;5031090;28;20045;-36
2023/12/14 07:27:14;;;;;;;10.90;7.57;;;;;;;18.32;51.74;101811.06;5024182;28;20331;-37
2023/12/14 07:29:40;;;;;;;10.60;7.70;;;;;;;18.39;51.66;101807.72;5028315;28;20041;-36
2023/12/14 07:32:07;;;;;;;10.52;7.20;;;;;;;18.46;51.40;101816.09;5026372;28;20473;-36
2023/12/14 07:34:34;;;;;;;11.95;6.93;;;;;;;18.52;51.24;101820.91;5023219;28;20499;-36
2023/12/14 07:37:01;;;;;;;12.45;7.82;;;;;;;18.59;51.67;101826.63;5021871;28;20050;-35
2023/12/14 07:39:27;;;;;;;11.40;7.65;;;;;;;18.63;51.29;101828.91;5024136;28;20046;-36
2023/12/14 07:41:54;;;;;;;9.50;6.78;;;;;;;18.68;50.83;101834.72;5025016;28;20108;-36
2023/12/14 07:44:21;;;;;;;9.35;6.60;;;;;;;18.70;51.13;101835.47;5022095;28;20507;-36
2023/12/14 07:46:48;;;;;;;13.55;7.80;;;;;;;18.70;50.88;101843.53;5025889;28;20076;-35
2023/12/14 07:49:15;;;;;;;9.95;7.05;;;;;;;18.69;51.11;101849.88;5031269;28;20049;-36
2023/12/14 07:51:41;;;;;;;10.18;6.80;;;;;;;18.67;50.75;101849.13;5030595;28;20049;-36
2023/12/14 07:54:08;;;;;;;9.65;6.70;;;;;;;18.66;50.62;101849.28;5024214;28;20060;-37
2023/12/14 07:56:35;;;;;;;10.10;6.63;;;;;;;18.61;51.03;101859.53;5026517;28;20053;-37
2023/12/14 07:59:03;;;;;;;9.70;6.90;;;;;;;18.55;51.20;101860.09;5026285;28;20045;-36
2023/12/14 08:01:29;;;;;;;10.65;6.85;;;;;;;18.50;51.42;101863.16;5021489;28;20429;-35
2023/12/14 08:03:56;;;;;;;10.02;6.68;;;;;;;18.43;51.04;101865.53;5025763;28;20342;-35
2023/12/14 08:06:23;;;;;;;8.85;6.40;;;;;;;18.37;51.36;101866.06;5025096;28;20053;-35
2023/12/14 08:08:49;;;;;;;8.35;6.03;;;;;;;18.31;51.73;101863.03;5027485;28;20060;-36
2023/12/14 08:11:16;;;;;;;9.43;6.55;;;;;;;18.24;51.38;101868.06;5024155;28;20154;-36
2023/12/14 08:13:43;;;;;;;8.98;6.13;;;;;;;18.19;51.61;101872.97;5023406;28;20053;-36
2023/12/14 08:16:11;;;;;;;8.80;6.28;;;;;;;18.15;51.54;101866.16;5022841;28;20096;-36
2023/12/14 08:18:37;;;;;;;9.60;6.75;;;;;;;18.10;51.88;101869.25;5020592;28;20049;-35
2023/12/14 08:21:04;;;;;;;9.15;5.82;;;;;;;18.07;51.83;101869.50;5027229;28;20049;-35
2023/12/14 08:23:31;;;;;;;10.20;6.65;;;;;;;18.03;51.72;101873.41;5024054;28;20100;-36
2023/12/14 08:25:58;;;;;;;10.93;6.82;;;;;;;18.00;52.32;101889.75;5023808;28;20056;-37
2023/12/14 08:28:25;;;;;;;8.10;5.60;;;;;;;17.97;51.95;101882.00;5023972;28;20054;-36
2023/12/14 08:30:52;;;;;;;9.05;5.78;;;;;;;17.94;51.83;101884.91;5027759;28;20330;-38
2023/12/14 08:33:18;;;;;;;8.07;5.82;;;;;;;17.92;52.39;101889.53;5027482;28;20075;-35
2023/12/14 08:35:45;;;;;;;8.50;5.85;;;;;;;17.90;52.04;101899.56;5023544;28;20057;-36
2023/12/14 08:38:12;;;;;;;8.20;6.00;;;;;;;17.88;52.21;101906.88;5028390;28;20037;-35
2023/12/14 08:40:39;;;;;;;9.38;6.00;;;;;;;17.87;52.14;101916.75;5021005;28;20124;-36
2023/12/14 08:43:05;;;;;;;8.25;5.60;;;;;;;17.85;52.59;101912.47;5020492;28;20053;-35
2023/12/14 08:45:32;;;;;;;7.50;5.32;;;;;;;17.86;52.27;101916.88;5023650;28;20520;-36
2023/12/14 08:47:59;;;;;;;7.65;5.50;;;;;;;17.90;52.27;101929.91;5025448;28;20198;-35
2023/12/14 08:50:26;;;;;;;7.60;5.50;;;;;;;17.97;52.28;101941.00;5025839;28;20049;-35
2023/12/14 08:52:53;;;;;;;6.82;5.05;;;;;;;18.02;51.89;101941.47;5025983;28;20076;-37
2023/12/14 08:55:21;;;;;;;8.18;5.68;;;;;;;18.08;52.08;101932.03;5023580;28;20057;-36
2023/12/14 08:57:48;;;;;;;7.72;5.50;;;;;;;18.13;51.99;101938.75;5026172;28;20230;-35
2023/12/14 09:00:15;;;;;;;7.57;5.70;;;;;;;18.20;52.00;101933.72;5028098;28;20045;-36
2023/12/14 09:02:43;;;;;;;7.72;5.32;;;;;;;18.27;51.67;101928.69;5027843;28;20057;-35
2023/12/14 09:05:10;;;;;;;7.10;5.32;;;;;;;18.33;51.71;101938.88;5030818;28;20053;-37
2023/12/14 09:07:42;;;;;;;6.72;5.00;;;;;;;18.38;51.58;101944.75;5022862;28;20132;-38
2023/12/14 09:10:09;;;;;;;6.13;4.72;;;;;;;18.40;51.17;101945.44;5025718;28;20042;-35
2023/12/14 09:12:36;;;;;;;7.07;5.03;;;;;;;18.42;51.23;101957.78;5021261;28;20137;-36
2023/12/14 09:15:04;;;;;;;6.28;4.78;;;;;;;18.43;51.82;101961.31;5025946;28;20053;-37
2023/12/14 09:17:33;;;;;;;6.65;5.22;;;;;;;18.43;51.77;101972.03;5020343;28;20057;-35
2023/12/14 09:20:07;;;;;;;7.87;5.37;;;;;;;18.43;51.77;101977.41;5025276;28;20044;-35
2023/12/14 09:22:34;;;;;;;7.10;4.55;;;;;;;18.42;52.22;101975.72;5026438;28;20053;-36
2023/12/14 09:25:00;;;;;;;6.80;4.53;;;;;;;18.41;52.05;101984.72;5029542;28;20132;-36
2023/12/14 09:27:27;;;;;;;7.32;4.97;;;;;;;18.41;52.36;101984.72;5026718;28;20148;-37
2023/12/14 09:29:54;;;;;;;6.38;4.55;;;;;;;18.41;52.64;101998.16;5031663;28;20050;-36
2023/12/14 09:32:20;;;;;;;6.38;4.47;;;;;;;18.41;52.70;101995.47;5028003;28;20057;-35
2023/12/14 09:34:47;;;;;;;5.97;3.97;;;;;;;18.40;52.35;102005.34;5028239;28;20049;-36
2023/12/14 09:37:14;;;;;;;7.15;4.63;;;;;;;18.43;52.55;102015.00;5028878;28;20157;-35
2023/12/14 09:39:41;;;;;;;5.45;4.10;;;;;;;18.42;52.34;102008.78;5035621;28;20132;-35
2023/12/14 09:42:08;;;;;;;6.28;4.57;;;;;;;18.43;52.50;102005.09;5028293;28;20053;-36
2023/12/14 09:44:37;;;;;;;5.97;4.63;;;;;;;18.46;52.61;102012.06;5023291;28;20157;-35
2023/12/14 09:47:05;;;;;;;6.25;4.15;;;;;;;18.49;52.37;102011.78;5028306;28;20045;-36
2023/12/14 09:49:33;;;;;;;7.32;4.32;;;;;;;18.49;52.09;102009.97;5028605;28;20096;-35
2023/12/14 09:52:00;;;;;;;6.93;4.20;;;;;;;18.52;52.17;102016.06;5028335;28;20046;-35
2023/12/14 09:54:27;;;;;;;5.70;4.43;;;;;;;18.54;52.54;102024.84;5022738;28;20354;-35
2023/12/14 09:56:54;;;;;;;6.22;4.20;;;;;;;18.54;52.52;102033.75;5029057;28;20049;-37
2023/12/14 09:59:21;;;;;;;5.72;3.92;;;;;;;18.57;52.31;102032.63;5023372;28;20045;-35
2023/12/14 10:01:48;;;;;;;6.50;4.30;;;;;;;18.57;51.85;102038.84;5027413;28;20155;-36
2023/12/14 10:04:20;;;;;;;7.55;4.80;;;;;;;18.57;52.22;102046.91;5031270;28;20499;-36
2023/12/14 10:06:47;;;;;;;5.63;3.85;;;;;;;18.59;52.33;102047.63;5028365;28;20049;-35
2023/12/14 10:09:16;;;;;;;6.90;3.90;;;;;;;18.59;52.17;102044.97;5032753;28;20085;-37
2023/12/14 10:11:44;;;;;;;5.28;3.50;;;;;;;18.58;52.09;102056.69;5026193;28;20081;-36
2023/12/14 10:14:21;;;;;;;5.70;3.80;;;;;;;18.58;51.85;102053.16;5029000;28;20592;-35
2023/12/14 10:16:50;;;;;;;6.05;3.92;;;;;;;18.59;51.89;102055.69;5029127;28;20052;-35
2023/12/14 10:19:19;;;;;;;5.18;3.50;;;;;;;18.58;51.44;102050.47;5026134;28;20033;-36
2023/12/14 10:21:46;;;;;;;5.68;3.65;;;;;;;18.57;51.65;102057.66;5033836;28;20049;-37
2023/12/14 10:24:14;;;;;;;5.95;4.00;;;;;;;18.57;51.50;102052.28;5029269;28;20053;-37
2023/12/14 10:26:46;;;;;;;5.97;3.35;;;;;;;18.56;51.48;102057.78;5028960;28;20057;-36
2023/12/14 10:29:13;;;;;;;6.38;4.07;;;;;;;18.54;51.67;102060.59;5025468;28;20048;-35
2023/12/14 10:31:40;;;;;;;5.40;3.30;;;;;;;18.54;51.40;102055.22;5030042;28;20071;-36
2023/12/14 10:34:07;;;;;;;5.72;3.65;;;;;;;18.54;51.45;102059.75;5031411;28;20053;-36
2023/12/14 10:36:35;;;;;;;6.28;4.15;;;;;;;18.53;51.21;102060.72;5028888;28;20050;-36
2023/12/14 10:39:03;;;;;;;4.97;3.17;;;;;;;18.52;51.71;102070.59;5024581;28;20133;-36
2023/12/14 10:41:32;;;;;;;9.65;3.70;;;;;;;18.53;51.45;102074.13;5027838;28;20050;-35
2023/12/14 10:44:00;;;;;;;6.72;4.10;;;;;;;18.52;51.78;102078.66;5027414;28;20076;-36
2023/12/14 10:46:52;;;;;;;6.05;3.63;;;;;;;18.53;51.90;102080.34;5029917;28;20407;-36
2023/12/14 10:49:20;;;;;;;5.20;3.33;;;;;;;18.53;51.43;102075.00;5033820;28;20445;-36
2023/12/14 10:51:47;;;;;;;7.25;4.03;;;;;;;18.54;52.02;102074.03;5039579;28;20622;-35
2023/12/14 10:54:16;;;;;;;5.00;3.60;;;;;;;18.56;51.46;102077.44;5026521;28;20617;-36
2023/12/14 10:56:42;;;;;;;6.20;3.65;;;;;;;18.56;51.84;102074.75;5029714;28;20073;-36
2023/12/14 10:59:09;;;;;;;6.35;3.83;;;;;;;18.58;51.67;102078.16;5030201;28;20429;-36
2023/12/14 11:01:39;;;;;;;4.40;3.35;;;;;;;18.58;51.33;102083.53;5024587;28;20049;-35
2023/12/14 11:04:06;;;;;;;4.88;3.30;;;;;;;18.60;51.38;102081.56;5031015;28;20724;-36
2023/12/14 11:06:37;;;;;;;5.25;3.08;;;;;;;18.61;51.91;102085.94;5029728;28;20045;-37
2023/12/14 11:09:06;;;;;;;5.00;2.72;;;;;;;18.62;51.81;102090.34;5030212;28;20137;-35
2023/12/14 11:11:53;;;;;;;6.28;3.13;;;;;;;18.63;51.70;102083.16;5027444;28;20136;-35
2023/12/14 11:14:21;;;;;;;4.47;3.20;;;;;;;18.66;51.37;102085.59;5018887;28;20049;-35
2023/12/14 11:16:48;;;;;;;5.22;3.35;;;;;;;18.67;51.76;102092.66;5023903;28;20072;-36